Lakewood, Texas
Current Conditions -  °F | °C
As of 11:50 PM on Sunday 25 Jan 2015 (Local Time) from KEFD Reporting Station
Few Clouds Few Clouds  
Wind Chill: 59°   Ceiling: Unl
Heat Index: 59°   Visibility: 10mi
Dew Point: 30°   Wind: 8mph
Humidity: 34%   Direction: 320°NW
Pressure: 30.15"   Gusts: NA
Location:  29.7803°N, 94.894°W
Report Text: KEFD 260550Z 32007KT 10SM FEW250 15/M01 A3015
Loading
Personal Weather Stations






























Interactive Weather Map New forecast layout! Learn more

10-Day Weather Forecast

Advertisements
Track Severe Weather on mobile